Time;durP1;ratioP1;P1;durP2;ratioP2;P2;SDS_P1;SDS_P2;PMS_P1;PMS_P2;Temp;Humidity;BMP_temperature;BMP_pressure;BME280_temperature;BME280_humidity;BME280_pressure;Samples;Min_cycle;Max_cycle;Signal;HPM_P1;HPM_P2
2022/06/11 00:02:05;;;;;;;34.15;24.40;;;;;;;17.20;100.00;97080.09;10460667;28;20062;-58
2022/06/11 00:07:08;;;;;;;38.42;24.08;;;;;;;17.20;100.00;97074.00;10426679;28;20112;-59
2022/06/11 00:12:08;;;;;;;31.70;22.42;;;;;;;17.23;100.00;97063.38;10418879;28;20059;-58
2022/06/11 00:17:11;;;;;;;33.97;23.13;;;;;;;17.24;100.00;97059.84;10434718;28;20102;-59
2022/06/11 00:22:12;;;;;;;32.70;22.20;;;;;;;17.23;100.00;97063.38;10451430;28;20114;-58
2022/06/11 00:27:13;;;;;;;32.55;21.63;;;;;;;17.23;100.00;97066.00;10454019;28;20132;-58
2022/06/11 00:32:13;;;;;;;30.52;20.90;;;;;;;17.24;100.00;97067.69;10461415;28;20072;-58
2022/06/11 00:37:17;;;;;;;34.08;22.70;;;;;;;17.23;100.00;97076.50;10428861;28;20495;-59
2022/06/11 00:42:21;;;;;;;26.42;20.20;;;;;;;17.24;100.00;97072.94;10419122;28;20060;-58
2022/06/11 00:47:22;;;;;;;29.88;20.40;;;;;;;17.20;100.00;97067.00;10424088;28;20070;-59
2022/06/11 00:52:33;;;;;;;29.95;19.27;;;;;;;17.20;100.00;97064.38;10417845;28;20507;-58
2022/06/11 00:57:36;;;;;;;29.48;20.10;;;;;;;17.23;100.00;97066.00;10418540;28;20063;-58
2022/06/11 01:02:37;;;;;;;26.95;19.73;;;;;;;17.12;100.00;97053.31;10418951;28;20094;-58
2022/06/11 01:07:54;;;;;;;25.25;18.00;;;;;;;17.08;100.00;97064.84;10442458;28;20070;-58
2022/06/11 01:13:30;;;;;;;25.80;17.77;;;;;;;16.96;100.00;97075.75;10430016;28;20072;-58
2022/06/11 01:18:36;;;;;;;25.08;17.65;;;;;;;16.89;100.00;97080.41;10452949;28;20048;-59
2022/06/11 01:23:54;;;;;;;27.40;18.00;;;;;;;16.89;100.00;97078.63;10431664;28;20071;-58
2022/06/11 01:29:22;;;;;;;29.60;18.23;;;;;;;16.80;100.00;97046.66;10418160;28;20052;-58
2022/06/11 01:34:43;;;;;;;24.83;17.17;;;;;;;16.94;100.00;97081.09;10400995;28;20071;-59
2022/06/11 01:40:14;;;;;;;23.60;16.33;;;;;;;17.05;100.00;97078.03;10460174;28;20451;-58
2022/06/11 01:45:28;;;;;;;25.38;17.30;;;;;;;17.06;100.00;97082.38;10418966;28;20070;-59
2022/06/11 01:50:31;;;;;;;25.67;17.05;;;;;;;17.04;100.00;97076.34;10459259;28;20059;-59
2022/06/11 01:55:51;;;;;;;26.27;17.65;;;;;;;17.04;100.00;97065.88;10419430;28;20130;-58
2022/06/11 02:01:11;;;;;;;26.08;17.27;;;;;;;17.00;100.00;97072.97;10419621;28;20083;-58
2022/06/11 02:06:45;;;;;;;26.05;17.55;;;;;;;16.98;100.00;97066.97;10419060;28;20448;-58
2022/06/11 02:11:47;;;;;;;24.15;17.40;;;;;;;17.00;100.00;97064.25;10419783;28;20775;-58
2022/06/11 02:17:10;;;;;;;24.38;16.77;;;;;;;17.02;100.00;97072.94;10419953;28;20071;-58
2022/06/11 02:22:15;;;;;;;27.17;18.02;;;;;;;17.02;100.00;97073.78;10422534;28;20494;-58
2022/06/11 02:27:25;;;;;;;26.77;17.23;;;;;;;17.05;100.00;97067.56;10460838;28;20066;-58
2022/06/11 02:32:26;;;;;;;;;;;;;;;17.08;100.00;97075.31;10443509;28;20075;-59
2022/06/11 02:37:39;;;;;;;27.15;17.92;;;;;;;17.09;100.00;97074.41;10419397;28;19959;-59
2022/06/11 02:42:38;;;;;;;33.10;20.45;;;;;;;17.13;100.00;97076.00;10419065;28;20097;-58
2022/06/11 02:47:39;;;;;;;29.98;19.85;;;;;;;17.11;100.00;97060.31;10437943;28;20137;-58
2022/06/11 02:52:39;;;;;;;30.95;19.40;;;;;;;17.17;100.00;97072.34;10434222;28;20084;-59
2022/06/11 02:57:38;;;;;;;29.85;20.10;;;;;;;17.19;100.00;97077.53;10415356;28;20060;-58
2022/06/11 03:02:38;;;;;;;35.40;20.65;;;;;;;17.21;100.00;97079.16;10419976;28;20070;-59
2022/06/11 03:07:37;;;;;;;30.52;20.58;;;;;;;17.21;100.00;97086.19;10456992;28;20071;-59
2022/06/11 03:12:36;;;;;;;30.55;19.35;;;;;;;17.18;100.00;97095.03;10434688;28;20105;-58
2022/06/11 03:17:35;;;;;;;32.08;20.75;;;;;;;17.19;100.00;97094.13;10419515;28;20032;-58
2022/06/11 03:22:34;;;;;;;30.27;20.25;;;;;;;17.21;100.00;97097.53;10423419;28;20029;-59
2022/06/11 03:27:33;;;;;;;34.78;20.35;;;;;;;17.26;100.00;97092.09;10423164;28;20721;-59
2022/06/11 03:32:32;;;;;;;33.30;20.42;;;;;;;17.31;100.00;97104.16;10438456;28;20497;-58
2022/06/11 03:37:32;;;;;;;35.00;20.80;;;;;;;17.34;100.00;97096.16;10464982;28;20062;-58
2022/06/11 03:42:31;;;;;;;35.60;20.90;;;;;;;17.39;100.00;97095.97;10439287;28;20072;-58
2022/06/11 03:47:30;;;;;;;33.90;20.85;;;;;;;17.38;100.00;97090.78;10459612;28;20067;-58
2022/06/11 03:52:30;;;;;;;32.53;20.60;;;;;;;17.42;100.00;97098.47;10440835;28;20080;-58
2022/06/11 03:57:29;;;;;;;37.53;21.42;;;;;;;17.41;100.00;97093.31;10421483;28;20067;-58
2022/06/11 04:02:28;;;;;;;34.03;21.13;;;;;;;17.38;100.00;97088.16;10421193;28;20068;-58
2022/06/11 04:07:27;;;;;;;30.75;20.88;;;;;;;17.35;100.00;97087.38;10422037;28;20029;-58
2022/06/11 04:12:26;;;;;;;32.03;20.92;;;;;;;17.46;100.00;97101.84;10421110;28;20047;-58
2022/06/11 04:17:31;;;;;;;32.97;21.88;;;;;;;17.44;100.00;97104.50;10438249;28;20132;-58
2022/06/11 04:22:30;;;;;;;33.67;22.15;;;;;;;17.53;100.00;97105.94;10420678;28;20064;-58
2022/06/11 04:27:29;;;;;;;30.05;20.88;;;;;;;17.60;100.00;97117.88;10418962;28;20068;-58
2022/06/11 04:32:29;;;;;;;29.73;20.25;;;;;;;17.55;100.00;97120.69;10420877;28;20055;-58
2022/06/11 04:37:30;;;;;;;30.70;20.80;;;;;;;17.48;100.00;97128.88;10441777;28;20051;-58
2022/06/11 04:42:29;;;;;;;31.42;20.65;;;;;;;17.51;100.00;97128.75;10454105;28;20700;-58
2022/06/11 04:47:29;;;;;;;31.90;18.45;;;;;;;17.42;100.00;97129.94;10458563;28;20490;-58
2022/06/11 04:52:28;;;;;;;29.90;18.95;;;;;;;17.28;100.00;97143.56;10423442;28;20099;-58
2022/06/11 04:57:28;;;;;;;29.90;20.85;;;;;;;17.46;100.00;97147.28;10418155;28;20051;-58
2022/06/11 05:02:26;;;;;;;27.80;19.15;;;;;;;17.67;100.00;97158.72;10422572;28;20062;-58
2022/06/11 05:07:25;;;;;;;25.60;19.85;;;;;;;17.74;100.00;97162.81;10422033;28;20037;-58
2022/06/11 05:12:25;;;;;;;27.60;18.85;;;;;;;17.75;100.00;97163.66;10463366;28;20042;-58
2022/06/11 05:17:24;;;;;;;25.15;18.23;;;;;;;17.64;100.00;97158.84;10463740;28;20059;-58
2022/06/11 05:22:23;;;;;;;23.00;17.65;;;;;;;17.70;100.00;97171.69;10461959;28;20126;-58
2022/06/11 05:27:25;;;;;;;24.27;18.05;;;;;;;17.63;100.00;97183.34;10462169;28;20039;-58
2022/06/11 05:32:29;;;;;;;23.73;18.42;;;;;;;17.64;100.00;97186.84;10440746;28;20083;-58
2022/06/11 05:37:28;;;;;;;25.00;19.15;;;;;;;17.75;100.00;97188.16;10460128;28;20481;-58
2022/06/11 05:42:28;;;;;;;23.13;17.95;;;;;;;17.97;100.00;97182.94;10457665;28;20063;-58
2022/06/11 05:47:27;;;;;;;22.02;17.27;;;;;;;18.08;99.64;97185.13;10455170;28;20121;-58
2022/06/11 05:52:31;;;;;;;20.70;17.27;;;;;;;18.35;99.48;97196.28;10456802;28;20083;-58
2022/06/11 05:57:30;;;;;;;22.60;18.65;;;;;;;18.33;99.44;97189.38;10455440;28;20075;-58
2022/06/11 06:02:30;;;;;;;20.13;16.95;;;;;;;18.36;98.28;97202.38;10455839;28;20490;-58
2022/06/11 06:07:29;;;;;;;23.42;17.88;;;;;;;18.37;98.51;97202.31;10454553;28;20455;-58
2022/06/11 06:12:32;;;;;;;22.13;17.67;;;;;;;18.70;98.88;97206.28;10457407;28;20451;-58
2022/06/11 06:17:31;;;;;;;18.13;15.27;;;;;;;18.81;94.80;97204.03;10454028;28;20513;-58
2022/06/11 06:22:31;;;;;;;19.70;16.00;;;;;;;18.87;94.52;97209.03;10456484;28;20503;-59
2022/06/11 06:27:30;;;;;;;19.13;15.75;;;;;;;19.10;94.65;97209.81;10453992;28;20853;-59
2022/06/11 06:32:29;;;;;;;18.05;15.55;;;;;;;19.16;93.33;97193.78;10415881;28;20071;-58
2022/06/11 06:37:28;;;;;;;20.98;16.02;;;;;;;19.38;93.13;97199.75;10441049;28;20036;-58
2022/06/11 06:42:27;;;;;;;23.02;17.27;;;;;;;19.60;92.56;97217.22;10415741;28;20117;-58
2022/06/11 06:47:26;;;;;;;18.33;15.52;;;;;;;19.65;91.01;97221.38;10445146;28;20505;-59
2022/06/11 06:52:25;;;;;;;18.63;14.93;;;;;;;19.50;89.66;97216.75;10414042;28;20547;-58
2022/06/11 06:57:24;;;;;;;19.58;16.52;;;;;;;19.29;90.85;97223.00;10435944;28;20459;-58
2022/06/11 07:02:23;;;;;;;18.67;15.82;;;;;;;19.42;90.83;97217.13;10420607;28;20851;-58
2022/06/11 07:07:22;;;;;;;16.80;14.38;;;;;;;19.86;91.20;97221.28;10413784;28;20414;-58
2022/06/11 07:12:21;;;;;;;17.85;13.90;;;;;;;20.19;87.63;97210.94;10415355;28;20032;-58
2022/06/11 07:17:21;;;;;;;13.50;11.70;;;;;;;20.32;85.81;97234.03;10414851;28;20059;-58
2022/06/11 07:22:28;;;;;;;16.73;12.95;;;;;;;20.41;86.74;97220.47;10419537;28;20063;-59
2022/06/11 07:27:30;;;;;;;13.68;11.40;;;;;;;20.50;85.00;97235.81;10452002;28;20526;-59
2022/06/11 07:32:35;;;;;;;12.45;10.90;;;;;;;20.75;84.35;97231.94;10454673;28;20059;-58
2022/06/11 07:37:35;;;;;;;11.85;10.02;;;;;;;21.04;82.31;97233.13;10446522;28;20075;-58
2022/06/11 07:42:34;;;;;;;11.93;8.38;;;;;;;20.91;80.03;97227.59;10412785;28;20068;-58
2022/06/11 07:52:51;;;;;;;8.48;7.57;;;;;;;21.79;80.10;97223.88;10412878;28;20087;-58
2022/06/11 07:57:51;;;;;;;7.82;6.90;;;;;;;22.05;75.19;97232.19;10433110;28;20072;-59
2022/06/11 08:02:50;;;;;;;7.35;6.43;;;;;;;21.88;73.55;97215.44;10415142;28;20066;-59
2022/06/11 08:07:51;;;;;;;8.10;6.70;;;;;;;22.36;74.03;97220.72;10422280;28;20798;-59
2022/06/11 08:12:50;;;;;;;8.07;6.40;;;;;;;22.00;73.01;97219.22;10459439;28;20070;-59
2022/06/11 08:17:50;;;;;;;9.02;7.03;;;;;;;22.21;73.53;97211.03;10451147;28;20067;-59
2022/06/11 08:22:49;;;;;;;6.25;5.40;;;;;;;22.16;70.57;97212.16;10422523;28;20079;-59
2022/06/11 08:27:49;;;;;;;5.85;5.15;;;;;;;21.79;72.39;97205.38;10426099;28;20072;-58
2022/06/11 08:32:48;;;;;;;7.32;5.72;;;;;;;21.53;73.52;97214.72;10419631;28;20063;-58
2022/06/11 08:37:47;;;;;;;8.77;6.05;;;;;;;20.78;76.53;97206.28;10417729;28;20773;-59
2022/06/11 08:42:52;;;;;;;6.93;5.45;;;;;;;20.89;77.38;97205.72;10418791;28;20093;-59
2022/06/11 08:48:04;;;;;;;8.45;5.35;;;;;;;20.66;76.17;97214.81;10454727;28;20498;-58
2022/06/11 08:53:05;;;;;;;7.90;5.05;;;;;;;20.37;79.34;97221.50;10459841;28;20094;-59
2022/06/11 08:58:41;;;;;;;8.13;7.00;;;;;;;18.95;88.71;97235.84;10444407;28;20139;-59
2022/06/11 09:03:53;;;;;;;11.20;8.75;;;;;;;17.74;98.66;97230.19;10417924;28;20064;-59
2022/06/11 09:09:25;;;;;;;15.32;10.43;;;;;;;16.99;100.00;97225.06;10417541;28;20102;-59
2022/06/11 09:15:26;;;;;;;17.75;11.55;;;;;;;16.55;100.00;97245.75;10453312;28;20070;-66
2022/06/11 09:20:28;;;;;;;;;;;;;;;16.19;100.00;97259.13;10378277;28;20060;-64
2022/06/11 09:26:04;;;;;;;16.50;10.43;;;;;;;16.25;100.00;97264.16;10420778;28;19955;-63
2022/06/11 09:31:12;;;;;;;13.95;10.13;;;;;;;16.45;100.00;97266.16;10433030;28;20506;-63
2022/06/11 09:36:41;;;;;;;15.13;10.65;;;;;;;16.89;100.00;97262.09;10442574;28;20074;-63
2022/06/11 09:42:07;;;;;;;14.47;10.40;;;;;;;17.37;100.00;97273.50;10433440;28;20071;-63
2022/06/11 09:47:13;;;;;;;10.88;8.32;;;;;;;17.89;100.00;97279.47;10425895;28;20106;-62
2022/06/11 09:52:23;;;;;;;12.27;8.45;;;;;;;18.45;100.00;97275.56;10450490;28;20083;-62
2022/06/11 09:57:44;;;;;;;9.68;7.30;;;;;;;18.55;100.00;97276.91;10434900;28;20075;-62
2022/06/11 10:03:01;;;;;;;9.68;7.88;;;;;;;18.53;100.00;97262.97;10439226;28;20157;-62
2022/06/11 10:08:15;;;;;;;10.73;8.52;;;;;;;18.90;100.00;97264.13;10435532;28;20130;-62
2022/06/11 10:13:42;;;;;;;11.05;8.50;;;;;;;18.92;100.00;97269.28;10444196;28;20056;-63
2022/06/11 10:18:43;;;;;;;15.43;12.48;;;;;;;18.66;100.00;97262.47;10437874;28;20059;-63
2022/06/11 10:23:53;;;;;;;10.40;9.02;;;;;;;18.38;100.00;97260.97;10419404;28;20068;-63
2022/06/11 10:29:04;;;;;;;9.63;7.57;;;;;;;18.60;100.00;97250.44;10425373;28;20702;-63
2022/06/11 10:34:16;;;;;;;9.82;8.07;;;;;;;18.33;100.00;97263.78;10459017;28;20715;-63
2022/06/11 10:39:47;;;;;;;10.95;7.85;;;;;;;18.51;100.00;97249.03;10433677;28;20474;-63
2022/06/11 10:44:49;;;;;;;9.80;7.22;;;;;;;19.05;100.00;97252.09;10457346;28;20087;-63
2022/06/11 10:50:01;;;;;;;9.15;7.55;;;;;;;19.73;100.00;97243.84;10411943;28;20072;-63
2022/06/11 10:55:00;;;;;;;8.60;6.55;;;;;;;20.23;100.00;97238.81;10419838;28;20075;-63
2022/06/11 11:00:18;;;;;;;7.22;5.35;;;;;;;19.87;100.00;97237.00;10441207;28;20094;-63
2022/06/11 11:05:19;;;;;;;8.00;6.35;;;;;;;19.62;100.00;97234.66;10453848;28;20086;-62
2022/06/11 11:10:22;;;;;;;9.10;6.47;;;;;;;19.39;100.00;97222.53;10417520;28;20064;-62
2022/06/11 11:15:26;;;;;;;7.68;6.63;;;;;;;19.31;100.00;97224.63;10437539;28;20478;-62
2022/06/11 11:20:37;;;;;;;6.20;5.00;;;;;;;19.55;100.00;97246.34;10416516;28;20067;-62
2022/06/11 11:25:53;;;;;;;8.88;5.75;;;;;;;19.51;100.00;97207.97;10435836;28;20060;-62
2022/06/11 11:31:07;;;;;;;7.97;5.60;;;;;;;19.63;100.00;97244.28;10411563;28;20530;-61
2022/06/11 11:36:22;;;;;;;9.45;6.88;;;;;;;19.78;100.00;97213.75;10411930;28;21273;-61
2022/06/11 11:41:25;;;;;;;11.13;7.53;;;;;;;20.17;100.00;97228.59;10459377;28;20059;-61
2022/06/11 11:46:30;;;;;;;7.13;5.40;;;;;;;20.43;100.00;97234.41;10459886;28;20830;-61
2022/06/11 11:51:35;;;;;;;6.82;5.68;;;;;;;20.03;98.66;97234.50;10458961;28;20430;-62
2022/06/11 11:56:42;;;;;;;8.05;6.15;;;;;;;19.64;97.54;97239.84;10459574;28;20503;-61
2022/06/11 12:01:44;;;;;;;8.80;7.50;;;;;;;19.09;98.87;97245.78;10461855;28;20474;-60
2022/06/11 12:06:50;;;;;;;9.25;7.07;;;;;;;18.17;100.00;97237.28;10459396;28;20541;-60
2022/06/11 12:12:12;;;;;;;8.57;7.22;;;;;;;18.01;100.00;97254.56;10459124;28;20051;-60
2022/06/11 12:17:40;;;;;;;8.68;6.80;;;;;;;17.99;100.00;97245.88;10457036;28;20082;-60
2022/06/11 12:22:52;;;;;;;9.38;7.45;;;;;;;17.88;100.00;97263.81;10453853;28;20451;-60
2022/06/11 12:27:52;;;;;;;10.02;6.95;;;;;;;17.76;100.00;97245.00;10457481;28;20063;-60
2022/06/11 12:32:52;;;;;;;10.27;6.90;;;;;;;17.81;100.00;97251.84;10451068;28;20061;-61
2022/06/11 12:38:08;;;;;;;10.18;7.80;;;;;;;17.70;100.00;97271.41;10456415;28;20063;-61
2022/06/11 12:43:12;;;;;;;8.05;6.18;;;;;;;17.70;100.00;97266.16;10457186;28;20060;-60
2022/06/11 12:48:34;;;;;;;8.77;6.30;;;;;;;17.77;100.00;97272.94;10459527;28;20063;-61
2022/06/11 12:53:56;;;;;;;9.95;7.05;;;;;;;18.21;100.00;97282.66;10461151;28;20077;-60
2022/06/11 12:59:03;;;;;;;5.88;4.47;;;;;;;18.58;100.00;97270.69;10449497;28;20060;-59
2022/06/11 13:04:21;;;;;;;6.43;4.68;;;;;;;18.97;97.66;97286.59;10458496;28;20060;-59
2022/06/11 13:09:55;;;;;;;5.60;4.55;;;;;;;19.16;96.74;97283.19;10460463;28;20724;-59
2022/06/11 13:15:15;;;;;;;5.25;4.13;;;;;;;19.05;94.80;97280.16;10328715;28;20056;-59
2022/06/11 13:20:29;;;;;;;5.00;4.10;;;;;;;19.32;94.83;97286.00;10460334;28;20467;-59
2022/06/11 13:26:02;;;;;;;6.28;4.00;;;;;;;19.97;94.64;97274.31;10454805;28;20070;-59
2022/06/11 13:31:07;;;;;;;5.00;4.28;;;;;;;20.08;90.40;97271.19;10458104;28;20644;-59
2022/06/11 13:36:25;;;;;;;7.20;5.13;;;;;;;19.98;89.30;97265.50;10460161;28;20059;-60
2022/06/11 13:41:41;;;;;;;5.38;4.70;;;;;;;20.43;89.37;97258.13;10451690;28;20059;-59
2022/06/11 13:46:43;;;;;;;8.10;6.03;;;;;;;21.06;93.54;97253.22;10446803;28;20060;-59
2022/06/11 13:51:48;;;;;;;7.15;4.80;;;;;;;21.20;86.87;97235.81;10446976;28;20083;-60
2022/06/11 13:57:02;;;;;;;4.63;4.10;;;;;;;21.26;81.21;97194.13;10433286;28;20067;-59
2022/06/11 14:02:03;;;;;;;5.45;4.50;;;;;;;21.51;79.60;97230.66;10443322;28;20106;-59
2022/06/11 14:07:08;;;;;;;5.15;4.50;;;;;;;21.24;80.18;97213.63;10416765;28;20094;-59
2022/06/11 14:12:45;;;;;;;6.40;4.57;;;;;;;21.08;80.76;97227.59;10416095;28;20064;-59
2022/06/11 14:17:47;;;;;;;6.65;5.00;;;;;;;20.67;82.06;97234.97;10446981;28;20055;-59
2022/06/11 14:23:02;;;;;;;14.50;11.50;;;;;;;19.55;86.19;97258.66;10455979;28;20051;-59
2022/06/11 14:28:16;;;;;;;8.18;6.25;;;;;;;19.19;89.59;97259.38;10453424;28;20477;-59
2022/06/11 14:33:19;;;;;;;5.82;3.92;;;;;;;18.92;90.02;97264.88;10448656;28;20067;-59
2022/06/11 14:38:21;;;;;;;5.40;3.97;;;;;;;18.58;91.21;97276.78;10452592;28;20067;-59
2022/06/11 14:43:21;;;;;;;4.90;3.83;;;;;;;18.43;91.79;97273.91;10451175;28;20075;-59
2022/06/11 14:48:36;;;;;;;4.75;3.47;;;;;;;18.21;93.17;97263.41;10451257;28;20066;-59
2022/06/11 14:53:48;;;;;;;5.15;3.58;;;;;;;18.16;94.44;97248.69;10453650;28;20084;-59
2022/06/11 14:59:09;;;;;;;9.25;6.38;;;;;;;18.08;97.77;97307.66;10445848;28;20064;-59
2022/06/11 15:04:46;;;;;;;22.17;16.05;;;;;;;17.60;98.66;97293.66;10415185;28;20067;-59
2022/06/11 15:10:05;;;;;;;11.18;6.90;;;;;;;17.37;99.34;97301.53;10338765;28;20175;-59
2022/06/11 15:15:41;;;;;;;8.93;7.38;;;;;;;17.35;98.83;97294.56;10449381;28;20059;-59
2022/06/11 15:20:47;;;;;;;35.10;23.80;;;;;;;17.22;100.00;97309.03;10423455;28;20056;-59
2022/06/11 15:25:49;;;;;;;16.30;9.48;;;;;;;16.78;100.00;97321.81;10422483;28;20076;-59
2022/06/11 15:30:49;;;;;;;22.38;17.23;;;;;;;16.47;100.00;97320.19;10443415;28;20514;-59
2022/06/11 15:35:51;;;;;;;42.33;29.38;;;;;;;16.35;100.00;97344.16;10464079;28;20111;-59
2022/06/11 15:40:56;;;;;;;9.93;6.68;;;;;;;16.29;100.00;97326.84;10440546;28;20064;-59
2022/06/11 15:46:00;;;;;;;12.30;8.38;;;;;;;16.41;100.00;97333.47;10446456;28;20100;-59
2022/06/11 15:51:13;;;;;;;14.90;10.32;;;;;;;16.36;100.00;97335.38;10462344;28;20055;-59
2022/06/11 15:56:19;;;;;;;13.00;10.00;;;;;;;16.40;100.00;97337.00;10460731;28;20087;-59
2022/06/11 16:01:18;;;;;;;12.68;7.30;;;;;;;16.29;100.00;97333.84;10463438;28;20056;-59
2022/06/11 16:06:17;;;;;;;11.98;7.82;;;;;;;16.28;100.00;97340.84;10462863;28;20071;-59
2022/06/11 16:11:47;;;;;;;12.88;7.72;;;;;;;16.43;100.00;97336.91;10444813;28;20076;-60
2022/06/11 16:16:57;;;;;;;16.83;9.77;;;;;;;16.52;100.00;97349.72;10446544;28;20064;-59
2022/06/11 16:22:01;;;;;;;14.57;10.38;;;;;;;16.58;100.00;97351.28;10424067;28;20071;-59
2022/06/11 16:27:02;;;;;;;17.77;11.85;;;;;;;16.68;100.00;97352.72;10429728;28;20087;-59
2022/06/11 16:32:02;;;;;;;21.98;14.20;;;;;;;16.88;100.00;97349.47;10447387;28;20068;-59
2022/06/11 16:37:23;;;;;;;17.02;9.93;;;;;;;17.07;100.00;97341.84;10444377;28;20477;-59
2022/06/11 16:47:44;;;;;;;9.88;7.50;;;;;;;17.18;100.00;97331.00;10453868;28;20067;-59
2022/06/11 16:58:07;;;;;;;8.93;6.80;;;;;;;17.28;100.00;97329.75;10458482;28;20068;-59
2022/06/11 17:03:09;;;;;;;8.98;7.22;;;;;;;17.23;100.00;97331.69;10458792;28;20068;-59
2022/06/11 17:08:08;;;;;;;137.07;94.57;;;;;;;17.23;100.00;97334.31;10459561;28;20055;-59
2022/06/11 17:13:21;;;;;;;31.67;22.50;;;;;;;17.34;100.00;97342.69;10456444;28;20055;-59
2022/06/11 17:18:26;;;;;;;16.30;11.80;;;;;;;17.44;100.00;97331.88;10457393;28;20070;-59
2022/06/11 17:23:35;;;;;;;8.57;6.72;;;;;;;17.49;100.00;97338.66;10453953;28;20063;-59
2022/06/11 17:28:40;;;;;;;10.30;7.72;;;;;;;17.46;100.00;97340.53;10459033;28;20456;-59
2022/06/11 17:33:39;;;;;;;8.98;6.90;;;;;;;17.29;100.00;97339.34;10455295;28;20489;-59
2022/06/11 17:38:41;;;;;;;21.08;14.45;;;;;;;17.26;100.00;97349.97;10458229;28;20058;-59
2022/06/11 17:43:41;;;;;;;20.05;12.77;;;;;;;17.33;100.00;97355.81;10457941;28;20510;-59
2022/06/11 17:48:40;;;;;;;93.68;60.15;;;;;;;17.03;100.00;97357.75;10456250;28;20059;-58
2022/06/11 17:53:41;;;;;;;35.13;23.42;;;;;;;16.95;100.00;97359.75;10457245;28;20043;-59
2022/06/11 17:58:41;;;;;;;13.07;9.90;;;;;;;16.89;100.00;97361.69;10455237;28;20066;-59
2022/06/11 18:03:40;;;;;;;15.10;9.82;;;;;;;16.89;100.00;97360.81;10457086;28;20054;-59
2022/06/11 18:08:39;;;;;;;14.50;11.57;;;;;;;16.85;100.00;97374.94;10453892;28;20056;-59
2022/06/11 18:13:38;;;;;;;19.02;13.38;;;;;;;16.84;100.00;97374.06;10455156;28;20750;-59
2022/06/11 18:18:50;;;;;;;18.02;13.60;;;;;;;16.87;100.00;97384.44;10457236;28;20055;-59
2022/06/11 18:29:07;;;;;;;14.45;9.02;;;;;;;16.88;100.00;97398.41;10456462;28;20511;-59
2022/06/11 18:34:08;;;;;;;15.85;10.65;;;;;;;16.83;100.00;97406.41;10455552;28;20063;-59
2022/06/11 18:39:08;;;;;;;13.00;8.93;;;;;;;16.80;100.00;97419.59;10455583;28;20055;-59
2022/06/11 18:44:07;;;;;;;11.23;7.97;;;;;;;16.74;100.00;97409.28;10453687;28;20078;-59
2022/06/11 18:49:06;;;;;;;11.95;8.43;;;;;;;16.75;100.00;97415.38;10454658;28;20052;-59
2022/06/11 18:54:05;;;;;;;11.90;8.35;;;;;;;16.73;100.00;97428.53;10455367;28;20047;-58
2022/06/11 18:59:07;;;;;;;11.70;8.98;;;;;;;16.69;100.00;97427.78;10437433;28;20055;-59
2022/06/11 19:04:07;;;;;;;13.52;10.52;;;;;;;16.68;100.00;97427.84;10455511;28;20060;-59
2022/06/11 19:09:06;;;;;;;14.57;9.93;;;;;;;16.67;100.00;97439.22;10442769;28;20060;-58
2022/06/11 19:14:05;;;;;;;15.48;11.45;;;;;;;16.72;100.00;97437.28;10414227;28;20509;-59
2022/06/11 19:19:04;;;;;;;17.33;12.82;;;;;;;16.74;100.00;97435.50;10449485;28;20035;-59
2022/06/11 19:24:03;;;;;;;19.15;11.98;;;;;;;16.78;100.00;97431.88;10419414;28;20025;-59
2022/06/11 19:29:05;;;;;;;15.48;11.05;;;;;;;16.80;100.00;97430.06;10414385;28;20056;-59
2022/06/11 19:34:05;;;;;;;18.25;11.07;;;;;;;16.75;100.00;97421.50;10421122;28;20068;-59
2022/06/11 19:39:07;;;;;;;14.77;10.68;;;;;;;16.84;100.00;97425.59;10414339;28;20060;-59
2022/06/11 19:44:10;;;;;;;16.73;10.88;;;;;;;16.86;100.00;97434.28;10422521;28;20070;-59
2022/06/11 19:49:10;;;;;;;15.73;10.80;;;;;;;16.80;100.00;97423.97;10455076;28;20067;-59
2022/06/11 19:54:09;;;;;;;17.38;10.98;;;;;;;16.87;100.00;97429.00;10454465;28;20091;-59
2022/06/11 19:59:09;;;;;;;15.55;11.05;;;;;;;16.91;100.00;97435.00;10417530;28;20075;-59
2022/06/11 20:04:09;;;;;;;16.08;10.95;;;;;;;16.93;100.00;97426.19;10421515;28;20072;-59
2022/06/11 20:09:10;;;;;;;14.65;10.82;;;;;;;16.98;100.00;97433.03;10420968;28;20056;-59
2022/06/11 20:14:12;;;;;;;14.13;10.02;;;;;;;16.99;100.00;97434.78;10421157;28;20079;-59
2022/06/11 20:19:11;;;;;;;15.02;10.05;;;;;;;16.95;100.00;97433.16;10439399;28;20056;-59
2022/06/11 20:24:11;;;;;;;16.30;10.50;;;;;;;16.91;100.00;97433.25;10456579;28;20490;-59
2022/06/11 20:29:10;;;;;;;14.15;9.80;;;;;;;16.89;100.00;97428.97;10459998;28;20060;-59
2022/06/11 20:34:09;;;;;;;13.65;9.63;;;;;;;16.90;100.00;97426.28;10419284;28;20076;-59
2022/06/11 20:39:12;;;;;;;16.02;9.40;;;;;;;16.98;100.00;97433.91;10419562;28;20067;-59
2022/06/11 20:44:11;;;;;;;12.10;8.82;;;;;;;16.98;100.00;97433.03;10420949;28;20075;-59
2022/06/11 20:54:28;;;;;;;16.88;10.63;;;;;;;16.92;100.00;97426.25;10458906;28;20076;-59
2022/06/11 20:59:27;;;;;;;16.88;11.27;;;;;;;16.92;100.00;97434.94;10462962;28;20020;-59
2022/06/11 21:04:26;;;;;;;15.88;10.63;;;;;;;16.89;100.00;97427.19;10461114;28;20071;-59
2022/06/11 21:09:27;;;;;;;14.27;9.00;;;;;;;16.90;100.00;97428.91;10463141;28;20031;-58
2022/06/11 21:14:28;;;;;;;12.75;9.27;;;;;;;16.91;100.00;97422.78;10457800;28;20070;-58
2022/06/11 21:19:28;;;;;;;13.27;9.52;;;;;;;16.92;100.00;97434.94;10462651;28;20988;-58
2022/06/11 21:24:30;;;;;;;14.65;10.07;;;;;;;16.89;100.00;97411.47;10460609;28;20056;-58
2022/06/11 21:29:29;;;;;;;16.63;10.85;;;;;;;16.93;100.00;97420.97;10462578;28;20067;-58
2022/06/11 21:34:28;;;;;;;15.02;10.00;;;;;;;16.98;100.00;97422.56;10452047;28;20043;-58
2022/06/11 21:39:27;;;;;;;14.68;10.05;;;;;;;16.99;100.00;97419.03;10442328;28;20035;-58
2022/06/11 21:44:34;;;;;;;15.45;10.23;;;;;;;16.98;100.00;97420.81;10450879;28;20059;-58
2022/06/11 21:49:34;;;;;;;16.98;10.60;;;;;;;17.01;100.00;97427.72;10455309;28;20063;-58
2022/06/11 21:54:34;;;;;;;15.00;10.32;;;;;;;17.03;100.00;97415.44;10437872;28;20076;-59
2022/06/11 21:59:36;;;;;;;13.77;9.43;;;;;;;17.04;100.00;97414.50;10416421;28;20063;-59
2022/06/11 22:04:35;;;;;;;13.77;9.02;;;;;;;17.01;100.00;97401.50;10416398;28;20064;-59
2022/06/11 22:09:34;;;;;;;15.25;9.25;;;;;;;17.04;100.00;97386.53;10416066;28;20068;-58
2022/06/11 22:14:33;;;;;;;13.98;9.88;;;;;;;17.05;100.00;97382.13;10421063;28;20107;-58
2022/06/11 22:19:33;;;;;;;14.23;9.93;;;;;;;17.03;100.00;97378.72;10457858;28;20060;-58
2022/06/11 22:24:41;;;;;;;16.58;9.43;;;;;;;17.04;100.00;97375.19;10415441;28;20106;-59
2022/06/11 22:29:41;;;;;;;15.63;9.52;;;;;;;17.03;100.00;97378.72;10416169;28;20522;-58
2022/06/11 22:34:41;;;;;;;14.55;10.13;;;;;;;17.04;100.00;97377.81;10398059;28;20548;-59
2022/06/11 22:39:40;;;;;;;14.43;10.45;;;;;;;16.99;100.00;97382.34;10455721;28;20079;-59
2022/06/11 22:44:39;;;;;;;17.92;10.95;;;;;;;16.82;100.00;97385.53;10444643;28;20477;-58
2022/06/11 22:49:38;;;;;;;20.65;12.93;;;;;;;16.63;100.00;97372.09;10455927;28;20059;-58
2022/06/11 22:54:38;;;;;;;17.55;12.25;;;;;;;16.41;100.00;97375.38;10452665;28;20078;-58
2022/06/11 22:59:37;;;;;;;18.55;12.15;;;;;;;16.50;100.00;97390.81;10457400;28;20523;-58
2022/06/11 23:04:39;;;;;;;14.70;11.35;;;;;;;16.48;100.00;97381.28;10456977;28;20499;-58
2022/06/11 23:09:38;;;;;;;14.80;10.85;;;;;;;16.48;100.00;97376.91;10424147;28;20063;-58
2022/06/11 23:14:37;;;;;;;16.42;11.75;;;;;;;16.49;100.00;97386.47;10456679;28;20034;-58
2022/06/11 23:19:35;;;;;;;;;;;;;;;16.52;100.00;97380.28;10440465;28;20021;-58
2022/06/11 23:24:34;;;;;;;17.17;12.03;;;;;;;16.33;100.00;97387.00;10414881;28;19951;-58
2022/06/11 23:29:33;;;;;;;20.92;11.80;;;;;;;16.37;100.00;97389.47;10414986;28;20028;-58
2022/06/11 23:34:32;;;;;;;;;;;;;;;16.42;100.00;97395.44;10450886;28;20441;-58